Terminal Aerodrome Forecast
Issued by NWS Cleveland, OH

Home | Current Version | Previous Version | Graphics & Text | Print | Product List | Glossary Off
Versions: 1 2 3 4 5 6 7 8 9 10 11 12 13 14 15 16 17

000
FTUS41 KCLE 241329 AAA
TAFCAK
TAF AMD
KCAK 241329Z 2413/2512 12008KT P6SM VCSH SCT015 OVC070
      TEMPO 2415/2416 BKN015
     FM241600 12010KT P6SM -SHRA OVC015
     FM242000 12010KT 6SM -SHRA OVC025
     FM250000 13012KT 4SM -SHRA OVC015
     FM250300 14010KT 3SM -SHRA OVC008=

USA.gov is the U.S. government's official web portal to all federal, state and local government web resources and services.